.
WxDataArchive / Data Records for 2011-04-22
2011-04-21 April 2011 2011-04-23

Data Records for Friday, 22 April 2011

Time	Temp	Chill	HIndex	Humid	Dewpt	 Wind 	HiWind	WindDir	Rain 	Barom 
-----	----	-----	------	-----	-----	------	------	-------	-----	----- 
00:00	45.1	45.1	45.1	61	32.5	3	10	68	0.00	30.277 
00:05	45.1	45.1	45.1	62	32.9	3	9	90	0.00	30.277 
00:10	44.9	43.0	44.9	61	32.3	4	9	90	0.00	30.277 
00:15	44.8	44.8	44.8	62	32.6	2	5	112	0.00	30.281 
00:20	44.8	44.8	44.8	63	33.0	2	6	112	0.00	30.281 
00:25	44.6	44.6	44.6	63	32.8	3	9	112	0.00	30.281 
00:30	44.3	44.3	44.3	63	32.5	2	7	90	0.00	30.288 
00:35	44.3	44.3	44.3	63	32.5	3	10	112	0.00	30.288 
00:40	44.2	44.2	44.2	63	32.4	3	7	90	0.00	30.288 
00:45	44.1	44.1	44.1	63	32.3	2	6	90	0.00	30.290 
00:50	44.1	44.1	44.1	63	32.3	2	5	90	0.00	30.290 
00:55	43.9	43.9	43.9	64	32.5	1	4	112	0.00	30.290 
01:00	43.9	43.9	43.9	64	32.5	2	5	90	0.00	30.275 
01:05	43.8	43.8	43.8	64	32.4	3	12	112	0.00	30.275 
01:10	43.8	43.8	43.8	64	32.4	3	12	90	0.00	30.275 
01:15	43.8	43.8	43.8	65	32.8	3	6	90	0.00	30.270 
01:20	43.6	43.6	43.6	65	32.6	3	9	90	0.00	30.270 
01:25	43.6	41.5	43.6	65	32.6	4	8	90	0.00	30.270 
01:30	43.5	43.5	43.5	65	32.5	3	9	90	0.00	30.260 
01:35	43.5	43.5	43.5	65	32.5	3	11	112	0.00	30.260 
01:40	43.5	43.5	43.5	65	32.5	3	7	112	0.00	30.260 
01:45	43.3	43.3	43.3	65	32.3	1	8	90	0.00	30.263 
01:50	43.3	43.3	43.3	64	32.0	2	6	45	0.00	30.263 
01:55	43.3	43.3	43.3	63	31.6	2	7	90	0.00	30.263 
02:00	43.3	40.3	43.3	60	30.4	5	13	90	0.00	30.263 
02:05	43.5	43.5	43.5	61	31.0	3	10	90	0.00	30.263 
02:10	43.3	43.3	43.3	62	31.2	2	6	90	0.00	30.263 
02:15	43.3	43.3	43.3	64	32.0	1	3	90	0.00	30.250 
02:20	43.2	43.2	43.2	65	32.2	2	6	90	0.00	30.250 
02:25	43.1	43.1	43.1	64	31.8	3	11	112	0.00	30.250 
02:30	42.9	42.9	42.9	64	31.6	2	6	112	0.00	30.230 
02:35	42.9	42.9	42.9	64	31.6	2	7	90	0.00	30.230 
02:40	42.8	42.8	42.8	62	30.7	3	7	90	0.00	30.230 
02:45	42.6	42.6	42.6	63	30.9	3	9	90	0.00	30.197 
02:50	42.5	38.7	42.5	62	30.4	6	12	90	0.00	30.197 
02:55	42.3	39.2	42.3	63	30.6	5	12	112	0.00	30.197 
03:00	42.3	40.0	42.3	66	31.8	4	10	90	0.00	30.166 
03:05	41.9	41.9	41.9	68	32.1	3	11	90	0.00	30.166 
03:10	41.6	41.6	41.6	70	32.6	2	5	112	0.01	30.166 
03:15	41.3	41.3	41.3	72	33.0	1	3	90	0.00	30.200 
03:20	41.1	41.1	41.1	73	33.1	0	3	90	0.00	30.200 
03:25	40.9	40.9	40.9	73	32.9	1	3	90	0.00	30.200 
03:30	40.9	40.9	40.9	73	32.9	1	3	90	0.00	30.189 
03:35	40.8	40.8	40.8	75	33.5	1	3	45	0.00	30.189 
03:40	40.5	40.5	40.5	76	33.5	1	5	112	0.01	30.189 
03:45	40.2	40.2	40.2	79	34.2	1	5	112	0.00	30.170 
03:50	39.9	39.9	39.9	79	33.9	3	6	90	0.00	30.170 
03:55	39.6	39.6	39.6	79	33.6	3	7	90	0.01	30.170 
04:00	39.3	36.5	39.3	80	33.7	4	11	90	0.00	30.175 
04:05	39.1	39.1	39.1	81	33.8	3	7	90	0.01	30.175 
04:10	38.8	38.8	38.8	83	34.1	3	7	112	0.01	30.175 
04:15	38.6	38.6	38.6	84	34.2	1	5	90	0.01	30.175 
04:20	38.5	38.5	38.5	84	34.1	3	6	90	0.00	30.175 
04:25	38.5	38.5	38.5	84	34.1	3	7	90	0.01	30.175 
04:30	38.6	38.6	38.6	84	34.2	3	7	90	0.00	30.174 
04:35	38.6	34.1	38.6	85	34.5	6	12	90	0.01	30.174 
04:40	38.6	34.8	38.6	85	34.5	5	10	112	0.00	30.174 
04:45	38.6	35.7	38.6	85	34.5	4	11	90	0.00	30.155 
04:50	38.6	38.6	38.6	86	34.8	1	4	90	0.00	30.155 
04:55	38.8	38.8	38.8	86	35.0	1	3	90	0.01	30.155 
05:00	38.8	38.8	38.8	87	35.3	2	7	90	0.00	30.184 
05:05	38.8	38.8	38.8	87	35.3	1	6	112	0.00	30.184 
05:10	38.8	38.8	38.8	87	35.3	1	5	112	0.00	30.184 
05:15	38.9	38.9	38.9	87	35.4	1	4	112	0.00	30.193 
05:20	38.9	38.9	38.9	87	35.4	2	9	112	0.00	30.193 
05:25	38.9	38.9	38.9	87	35.4	2	6	90	0.00	30.193 
05:30	38.9	38.9	38.9	88	35.7	3	8	90	0.00	30.173 
05:35	38.8	38.8	38.8	88	35.6	1	6	112	0.00	30.173 
05:40	38.8	38.8	38.8	88	35.6	3	9	90	0.01	30.173 
05:45	38.6	35.7	38.6	88	35.4	4	10	90	0.00	30.170 
05:50	38.6	38.6	38.6	88	35.4	3	9	112	0.00	30.170 
05:55	38.6	38.6	38.6	88	35.4	3	7	90	0.00	30.170 
06:00	38.6	35.7	38.6	88	35.4	4	10	112	0.00	30.166 
06:05	38.6	35.7	38.6	88	35.4	4	9	90	0.00	30.166 
06:10	38.6	34.8	38.6	88	35.4	5	10	90	0.00	30.166 
06:15	38.6	35.7	38.6	87	35.1	4	9	90	0.00	30.159 
06:20	38.6	34.8	38.6	87	35.1	5	12	112	0.00	30.159 
06:25	38.6	34.8	38.6	87	35.1	5	13	112	0.00	30.159 
06:30	38.5	34.7	38.5	87	35.0	5	10	112	0.00	30.146 
06:35	38.5	35.6	38.5	87	35.0	4	12	112	0.00	30.146 
06:40	38.5	35.6	38.5	87	35.0	4	12	112	0.01	30.146 
06:45	38.3	35.4	38.3	88	35.1	4	10	90	0.01	30.145 
06:50	38.2	34.4	38.2	88	35.0	5	12	90	0.01	30.145 
06:55	38.2	35.2	38.2	88	35.0	4	11	90	0.00	30.145 
07:00	38.0	35.0	38.0	88	34.8	4	8	90	0.00	30.148 
07:05	38.0	35.0	38.0	89	35.1	4	10	112	0.01	30.148 
07:10	38.0	35.0	38.0	89	35.1	4	8	90	0.01	30.148 
07:15	37.9	34.9	37.9	89	35.0	4	11	90	0.01	30.155 
07:20	37.9	34.9	37.9	90	35.2	4	9	90	0.01	30.155 
07:25	37.8	33.1	37.8	90	35.1	6	11	112	0.00	30.155 
07:30	37.8	33.1	37.8	91	35.4	6	12	90	0.01	30.146 
07:35	37.8	33.1	37.8	91	35.4	6	11	90	0.01	30.146 
07:40	37.6	33.7	37.6	91	35.2	5	10	90	0.01	30.146 
07:45	37.6	32.2	37.6	91	35.2	7	14	112	0.00	30.129 
07:50	37.6	34.5	37.6	91	35.2	4	11	90	0.00	30.129 
07:55	37.6	33.7	37.6	91	35.2	5	13	90	0.00	30.129 
08:00	37.6	33.7	37.6	91	35.2	5	12	90	0.00	30.129 
08:05	37.6	34.5	37.6	91	35.2	4	11	90	0.01	30.129 
08:10	37.6	34.5	37.6	91	35.2	4	11	112	0.01	30.129 
08:15	37.8	37.8	37.8	91	35.4	3	11	112	0.00	30.129 
08:20	37.8	33.1	37.8	91	35.4	6	11	90	0.01	30.129 
08:25	37.8	33.9	37.8	91	35.4	5	11	90	0.00	30.129 
08:30	37.9	34.9	37.9	91	35.5	4	9	112	0.00	30.129 
08:35	37.9	37.9	37.9	91	35.5	3	9	90	0.00	30.129 
08:40	38.0	35.0	38.0	91	35.6	4	11	112	0.00	30.129 
08:45	38.2	34.4	38.2	91	35.8	5	11	112	0.00	30.133 
08:50	38.2	35.2	38.2	91	35.8	4	11	112	0.00	30.133 
08:55	38.2	34.4	38.2	91	35.8	5	15	112	0.00	30.133 
09:00	38.3	35.4	38.3	91	35.9	4	11	112	0.00	30.122 
09:05	38.3	35.4	38.3	91	35.9	4	7	90	0.00	30.122 
09:10	38.3	35.4	38.3	91	35.9	4	11	90	0.00	30.122 
09:15	38.5	35.6	38.5	91	36.1	4	11	112	0.00	30.119 
09:20	38.5	38.5	38.5	91	36.1	3	10	90	0.00	30.119 
09:25	38.6	35.7	38.6	91	36.2	4	9	90	0.00	30.119 
09:30	38.6	38.6	38.6	91	36.2	3	10	112	0.00	30.130 
09:35	38.6	35.7	38.6	91	36.2	4	10	112	0.00	30.130 
09:40	38.6	35.7	38.6	91	36.2	4	11	112	0.00	30.130 
09:45	38.8	38.8	38.8	91	36.4	2	7	112	0.00	30.119 
09:50	38.8	35.9	38.8	91	36.4	4	12	90	0.00	30.119 
09:55	38.9	35.2	38.9	91	36.5	5	9	112	0.00	30.119 
10:00	38.9	35.2	38.9	90	36.2	5	10	112	0.00	30.100 
10:05	38.9	36.0	38.9	90	36.2	4	10	90	0.00	30.100 
10:10	39.1	36.3	39.1	90	36.4	4	9	90	0.00	30.100 
10:15	39.1	35.4	39.1	90	36.4	5	9	90	0.00	30.094 
10:20	39.1	35.4	39.1	89	36.1	5	10	112	0.00	30.094 
10:25	39.2	34.8	39.2	89	36.2	6	11	90	0.00	30.094 
10:30	39.3	34.9	39.3	89	36.3	6	11	90	0.00	30.082 
10:35	39.3	34.9	39.3	89	36.3	6	13	90	0.00	30.082 
10:40	39.5	35.2	39.5	89	36.5	6	13	90	0.00	30.082 
10:45	39.6	36.9	39.6	89	36.6	4	9	90	0.00	30.082 
10:50	39.8	35.5	39.8	88	36.5	6	13	90	0.00	30.082 
10:55	39.8	34.9	39.8	87	36.3	7	14	112	0.01	30.082 
11:00	39.9	36.4	39.9	88	36.6	5	11	112	0.00	30.079 
11:05	40.1	36.6	40.1	87	36.5	5	12	90	0.00	30.079 
11:10	40.2	36.7	40.2	88	36.9	5	12	112	0.00	30.079 
11:15	40.2	36.7	40.2	88	36.9	5	9	112	0.00	30.071 
11:20	40.3	36.8	40.3	88	37.0	5	14	90	0.00	30.071 
11:25	40.5	37.9	40.5	88	37.2	4	8	112	0.00	30.071 
11:30	40.6	36.5	40.6	88	37.3	6	11	112	0.00	30.065 
11:35	40.6	36.5	40.6	87	37.0	6	11	90	0.00	30.065 
11:40	40.9	36.8	40.9	86	37.0	6	13	112	0.00	30.065 
11:45	41.2	37.2	41.2	86	37.3	6	12	90	0.00	30.045 
11:50	41.3	38.0	41.3	86	37.4	5	11	112	0.00	30.045 
11:55	41.5	38.2	41.5	86	37.6	5	12	112	0.00	30.045 
12:00	41.3	36.2	41.3	85	37.1	8	17	90	0.00	30.041 
12:05	41.3	36.7	41.3	85	37.1	7	13	90	0.00	30.041 
12:10	41.3	37.3	41.3	85	37.1	6	11	90	0.00	30.041 
12:15	41.3	38.0	41.3	85	37.1	5	10	90	0.00	30.045 
12:20	41.5	39.1	41.5	85	37.3	4	11	90	0.00	30.045 
12:25	41.6	37.7	41.6	85	37.4	6	12	90	0.00	30.045 
12:30	41.6	38.4	41.6	85	37.4	5	11	90	0.00	30.035 
12:35	41.8	38.6	41.8	85	37.6	5	12	112	0.00	30.035 
12:40	41.8	37.3	41.8	85	37.6	7	11	90	0.00	30.035 
12:45	41.8	38.6	41.8	86	37.9	5	12	90	0.00	30.033 
12:50	41.6	37.7	41.6	86	37.7	6	13	90	0.00	30.033 
12:55	41.5	37.5	41.5	86	37.6	6	17	90	0.00	30.033 
13:00	41.6	38.4	41.6	86	37.7	5	11	90	0.00	30.026 
13:05	41.8	38.6	41.8	86	37.9	5	11	90	0.00	30.026 
13:10	41.8	38.6	41.8	86	37.9	5	11	90	0.00	30.026 
13:15	41.8	38.6	41.8	86	37.9	5	13	90	0.00	30.021 
13:20	41.8	37.9	41.8	86	37.9	6	13	90	0.00	30.021 
13:25	41.9	39.5	41.9	86	38.0	4	11	90	0.00	30.021 
13:30	42.1	42.1	42.1	86	38.2	2	7	90	0.00	30.035 
13:35	42.1	42.1	42.1	86	38.2	3	6	68	0.00	30.035 
13:40	42.1	42.1	42.1	86	38.2	3	9	90	0.00	30.035 
13:45	42.1	38.9	42.1	90	39.4	5	11	90	0.00	30.023 
13:50	42.1	38.9	42.1	86	38.2	5	11	112	0.00	30.023 
13:55	42.2	39.9	42.2	86	38.3	4	10	90	0.00	30.023 
14:00	42.2	39.1	42.2	87	38.6	5	11	112	0.00	30.017 
14:05	42.3	40.0	42.3	88	39.0	4	10	90	0.00	30.017 
14:10	42.2	38.4	42.2	88	38.9	6	11	112	0.00	30.017 
14:15	42.2	39.9	42.2	88	38.9	4	11	112	0.00	30.018 
14:20	42.2	38.4	42.2	88	38.9	6	12	90	0.00	30.018 
14:25	42.1	38.3	42.1	88	38.8	6	14	112	0.00	30.018 
14:30	42.1	38.3	42.1	89	39.1	6	12	90	0.00	30.018 
14:35	42.1	39.7	42.1	89	39.1	4	9	90	0.00	30.018 
14:40	42.2	42.2	42.2	90	39.5	3	7	90	0.00	30.018 
14:45	42.2	42.2	42.2	91	39.8	3	7	112	0.00	30.017 
14:50	42.1	42.1	42.1	91	39.7	3	7	112	0.01	30.017 
14:55	42.1	42.1	42.1	92	39.9	3	9	90	0.00	30.017 
15:00	42.1	42.1	42.1	92	39.9	3	9	90	0.00	30.019 
15:05	41.9	41.9	41.9	92	39.7	3	6	90	0.01	30.019 
15:10	41.9	41.9	41.9	92	39.7	3	9	90	0.01	30.019 
15:15	41.8	38.6	41.8	92	39.6	5	11	90	0.01	30.025 
15:20	41.8	41.8	41.8	93	39.9	3	9	90	0.01	30.025 
15:25	41.8	41.8	41.8	93	39.9	3	8	90	0.02	30.025 
15:30	41.8	41.8	41.8	93	39.9	3	5	90	0.01	30.023 
15:35	41.8	41.8	41.8	94	40.2	2	6	112	0.01	30.023 
15:40	41.8	41.8	41.8	94	40.2	2	5	90	0.01	30.023 
15:45	41.8	41.8	41.8	94	40.2	3	6	112	0.02	30.024 
15:50	41.8	41.8	41.8	94	40.2	2	6	112	0.01	30.024 
15:55	41.8	41.8	41.8	94	40.2	3	6	112	0.02	30.024 
16:00	41.9	41.9	41.9	94	40.3	3	6	90	0.02	30.006 
16:05	41.9	41.9	41.9	95	40.6	3	7	90	0.01	30.006 
16:10	41.9	41.9	41.9	95	40.6	1	5	90	0.01	30.006 
16:15	41.9	41.9	41.9	95	40.6	3	6	90	0.01	29.995 
16:20	41.9	41.9	41.9	95	40.6	2	4	90	0.00	29.995 
16:25	42.1	42.1	42.1	95	40.8	3	7	90	0.01	29.995 
16:30	42.1	42.1	42.1	95	40.8	2	5	90	0.00	29.988 
16:35	42.1	42.1	42.1	95	40.8	2	5	90	0.00	29.988 
16:40	42.2	42.2	42.2	95	40.9	2	6	90	0.01	29.988 
16:45	42.2	42.2	42.2	95	40.9	3	6	90	0.00	29.978 
16:50	42.2	42.2	42.2	95	40.9	3	7	112	0.01	29.978 
16:55	42.2	39.1	42.2	95	40.9	5	10	112	0.00	29.978 
17:00	42.1	36.7	42.1	96	41.0	9	16	90	0.00	29.839 
17:05	42.1	37.7	42.1	96	41.0	7	14	112	0.01	29.839 
17:10	42.2	39.9	42.2	96	41.1	4	11	90	0.00	29.839 
17:15	42.3	42.3	42.3	96	41.2	1	4	45	0.00	29.900 
17:20	42.5	42.5	42.5	96	41.4	1	5	112	0.00	29.900 
17:25	42.5	39.4	42.5	96	41.4	5	12	112	0.00	29.900 
17:30	42.6	40.3	42.6	96	41.5	4	11	90	0.00	29.863 
17:35	42.6	40.3	42.6	96	41.5	4	12	112	0.00	29.863 
17:40	42.6	39.5	42.6	96	41.5	5	14	90	0.00	29.863 
17:45	42.6	40.3	42.6	96	41.5	4	11	112	0.00	29.847 
17:50	42.8	40.6	42.8	96	41.7	4	11	90	0.00	29.847 
17:55	42.9	39.9	42.9	96	41.8	5	12	90	0.00	29.847 
18:00	42.9	39.9	42.9	96	41.8	5	11	90	0.00	29.863 
18:05	43.1	40.9	43.1	96	42.0	4	8	90	0.00	29.863 
18:10	43.2	41.0	43.2	96	42.1	4	10	90	0.00	29.863 
18:15	43.3	41.1	43.3	96	42.2	4	10	90	0.00	29.853 
18:20	43.3	40.3	43.3	96	42.2	5	13	90	0.00	29.853 
18:25	43.5	40.6	43.5	96	42.4	5	12	90	0.00	29.853 
18:30	43.5	40.6	43.5	96	42.4	5	11	90	0.00	29.838 
18:35	43.8	40.9	43.8	96	42.7	5	10	90	0.00	29.838 
18:40	43.8	40.9	43.8	96	42.7	5	11	90	0.00	29.838 
18:45	43.9	41.8	43.9	96	42.8	4	11	90	0.00	29.816 
18:50	44.1	41.3	44.1	96	43.0	5	11	90	0.00	29.816 
18:55	44.1	44.1	44.1	96	43.0	3	7	90	0.00	29.816 
19:00	44.2	42.2	44.2	96	43.1	4	10	90	0.00	29.837 
19:05	44.3	44.3	44.3	96	43.2	3	5	112	0.00	29.837 
19:10	44.5	44.5	44.5	96	43.4	2	6	68	0.00	29.837 
19:15	44.6	44.6	44.6	96	43.5	3	7	90	0.00	29.848 
19:20	44.6	44.6	44.6	96	43.5	3	9	90	0.00	29.848 
19:25	44.8	44.8	44.8	96	43.7	3	9	90	0.00	29.848 
19:30	44.9	44.9	44.9	96	43.8	3	7	90	0.00	29.846 
19:35	44.9	44.9	44.9	96	43.8	2	4	90	0.00	29.846 
19:40	45.1	45.1	45.1	96	44.0	2	7	90	0.00	29.846 
19:45	45.1	45.1	45.1	96	44.0	1	5	90	0.00	29.847 
19:50	45.1	45.1	45.1	96	44.0	2	5	90	0.00	29.847 
19:55	45.1	45.1	45.1	96	44.0	1	4	90	0.00	29.847 
20:00	45.1	45.1	45.1	96	44.0	2	5	90	0.00	29.851 
20:05	45.1	45.1	45.1	96	44.0	2	6	90	0.00	29.851 
20:10	45.2	45.2	45.2	96	44.1	2	5	90	0.00	29.851 
20:15	45.2	45.2	45.2	96	44.1	3	6	90	0.00	29.847 
20:20	45.2	45.2	45.2	96	44.1	3	7	90	0.00	29.847 
20:25	45.2	45.2	45.2	96	44.1	2	5	90	0.00	29.847 
20:30	45.2	45.2	45.2	96	44.1	3	5	112	0.00	29.833 
20:35	45.2	45.2	45.2	96	44.1	3	8	90	0.00	29.833 
20:40	45.2	45.2	45.2	96	44.1	3	6	112	0.00	29.833 
20:45	45.2	43.3	45.2	96	44.1	4	10	112	0.00	29.817 
20:50	45.2	45.2	45.2	96	44.1	3	7	112	0.00	29.817 
20:55	45.2	45.2	45.2	96	44.1	2	7	90	0.00	29.817 
21:00	45.2	42.6	45.2	97	44.4	5	12	90	0.00	29.787 
21:05	45.2	43.3	45.2	97	44.4	4	9	90	0.00	29.787 
21:10	45.4	43.6	45.4	97	44.6	4	7	90	0.00	29.787 
21:15	45.4	42.8	45.4	97	44.6	5	10	90	0.04	29.781 
21:20	45.4	43.6	45.4	97	44.6	4	11	90	0.01	29.781 
21:25	45.5	45.5	45.5	97	44.7	3	7	112	0.00	29.781 
21:30	45.5	45.5	45.5	97	44.7	3	6	112	0.01	29.785 
21:35	45.5	45.5	45.5	97	44.7	2	10	90	0.01	29.785 
21:40	45.7	45.7	45.7	97	44.9	1	5	90	0.00	29.785 
21:45	45.7	45.7	45.7	97	44.9	1	4	90	0.00	29.792 
21:50	45.7	43.9	45.7	97	44.9	4	7	90	0.01	29.792 
21:55	45.7	45.7	45.7	97	44.9	3	6	90	0.00	29.792 
22:00	45.7	45.7	45.7	97	44.9	2	6	90	0.00	29.786 
22:05	45.7	45.7	45.7	97	44.9	1	5	90	0.00	29.786 
22:10	45.7	45.7	45.7	97	44.9	3	6	112	0.01	29.786 
22:15	45.7	45.7	45.7	97	44.9	3	6	90	0.00	29.776 
22:20	45.7	45.7	45.7	97	44.9	3	6	90	0.01	29.776 
22:25	45.7	45.7	45.7	97	44.9	2	5	112	0.00	29.776 
22:30	45.8	45.8	45.8	97	45.0	1	5	90	0.00	29.765 
22:35	45.8	45.8	45.8	97	45.0	3	5	90	0.00	29.765 
22:40	46.0	46.0	46.0	97	45.2	2	5	90	0.00	29.765 
22:45	46.2	46.2	46.2	97	45.4	3	6	90	0.00	29.764 
22:50	46.4	46.4	46.4	97	45.6	3	6	90	0.01	29.764 
22:55	46.5	44.8	46.5	97	45.7	4	6	90	0.01	29.764 
23:00	46.5	46.5	46.5	97	45.7	2	5	90	0.01	29.762 
23:05	46.5	46.5	46.5	97	45.7	3	5	90	0.00	29.762 
23:10	46.5	46.5	46.5	97	45.7	2	5	90	0.01	29.762 
23:15	46.5	46.5	46.5	97	45.7	2	5	112	0.00	29.748 
23:20	46.5	46.5	46.5	97	45.7	3	6	90	0.00	29.748 
23:25	46.5	46.5	46.5	97	45.7	3	6	90	0.00	29.748 
23:30	46.7	46.7	46.7	97	45.9	2	4	112	0.00	29.728 
23:35	46.7	46.7	46.7	97	45.9	2	5	112	0.00	29.728 
23:40	46.8	46.8	46.8	97	46.0	2	5	112	0.00	29.728 
23:45	47.0	47.0	47.0	97	46.2	2	5	112	0.00	29.715 
23:50	47.0	47.0	47.0	97	46.2	1	4	112	0.00	29.715 
23:55	47.1	47.1	47.1	97	46.3	2	6	112	0.00	29.715 

CoCoRaHS
IN-AL-39
A2 Web Hosting
Creative Commons License
GoDaddy
search engine by freefind advanced

loaded 2018-11-15 06:08:43 • last modified 2010-11-18 10:43:29
Privacy PolicyDisclaimer
• wx.awcolley.com is powered by PmWiki v.2002016 •
• all content (unless otherwise noted) © 2018 A W Colley